sensor_id;sensor_type;location;lat;lon;timestamp;P1;durP1;ratioP1;P2;durP2;ratioP2
77026;SDS011;65956;52.986;17.490;2023-08-21T00:00:07;17.80;;;11.80;;
77026;SDS011;65956;52.986;17.490;2023-08-21T00:02:57;18.50;;;11.90;;
77026;SDS011;65956;52.986;17.490;2023-08-21T00:05:23;18.30;;;11.50;;
77026;SDS011;65956;52.986;17.490;2023-08-21T00:07:49;16.70;;;11.30;;
77026;SDS011;65956;52.986;17.490;2023-08-21T00:10:16;18.80;;;12.40;;
77026;SDS011;65956;52.986;17.490;2023-08-21T00:12:43;16.20;;;10.70;;
77026;SDS011;65956;52.986;17.490;2023-08-21T00:15:09;17.70;;;12.70;;
77026;SDS011;65956;52.986;17.490;2023-08-21T00:17:35;16.90;;;11.80;;
77026;SDS011;65956;52.986;17.490;2023-08-21T00:20:01;15.80;;;12.10;;
77026;SDS011;65956;52.986;17.490;2023-08-21T00:22:28;18.30;;;12.40;;
77026;SDS011;65956;52.986;17.490;2023-08-21T00:24:54;16.50;;;11.70;;
77026;SDS011;65956;52.986;17.490;2023-08-21T00:27:20;15.20;;;10.80;;
77026;SDS011;65956;52.986;17.490;2023-08-21T00:29:46;17.40;;;10.70;;
77026;SDS011;65956;52.986;17.490;2023-08-21T00:32:12;14.50;;;9.70;;
77026;SDS011;65956;52.986;17.490;2023-08-21T00:34:38;14.80;;;9.80;;
77026;SDS011;65956;52.986;17.490;2023-08-21T00:37:04;17.40;;;10.30;;
77026;SDS011;65956;52.986;17.490;2023-08-21T00:39:31;15.30;;;9.90;;
77026;SDS011;65956;52.986;17.490;2023-08-21T00:41:57;14.00;;;9.80;;
77026;SDS011;65956;52.986;17.490;2023-08-21T00:44:23;17.40;;;9.90;;
77026;SDS011;65956;52.986;17.490;2023-08-21T00:46:49;16.30;;;10.20;;
77026;SDS011;65956;52.986;17.490;2023-08-21T00:49:15;14.80;;;9.70;;
77026;SDS011;65956;52.986;17.490;2023-08-21T00:51:41;15.60;;;10.60;;
77026;SDS011;65956;52.986;17.490;2023-08-21T00:54:07;16.40;;;10.60;;
77026;SDS011;65956;52.986;17.490;2023-08-21T00:56:34;15.60;;;10.90;;
77026;SDS011;65956;52.986;17.490;2023-08-21T00:59:01;20.40;;;12.20;;
77026;SDS011;65956;52.986;17.490;2023-08-21T01:01:28;15.10;;;10.70;;
77026;SDS011;65956;52.986;17.490;2023-08-21T01:03:54;17.90;;;12.10;;
77026;SDS011;65956;52.986;17.490;2023-08-21T01:06:21;23.50;;;13.30;;
77026;SDS011;65956;52.986;17.490;2023-08-21T01:08:53;20.40;;;12.90;;
77026;SDS011;65956;52.986;17.490;2023-08-21T01:11:40;20.20;;;12.30;;
77026;SDS011;65956;52.986;17.490;2023-08-21T01:17:14;19.00;;;11.40;;
77026;SDS011;65956;52.986;17.490;2023-08-21T01:19:44;15.70;;;10.20;;
77026;SDS011;65956;52.986;17.490;2023-08-21T01:22:13;18.60;;;12.20;;
77026;SDS011;65956;52.986;17.490;2023-08-21T01:24:40;21.40;;;13.80;;
77026;SDS011;65956;52.986;17.490;2023-08-21T01:27:06;16.70;;;11.10;;
77026;SDS011;65956;52.986;17.490;2023-08-21T01:29:32;19.10;;;12.80;;
77026;SDS011;65956;52.986;17.490;2023-08-21T01:32:08;19.80;;;12.20;;
77026;SDS011;65956;52.986;17.490;2023-08-21T01:34:41;19.10;;;11.60;;
77026;SDS011;65956;52.986;17.490;2023-08-21T01:37:07;17.40;;;10.80;;
77026;SDS011;65956;52.986;17.490;2023-08-21T01:39:34;18.20;;;11.90;;
77026;SDS011;65956;52.986;17.490;2023-08-21T01:42:00;18.30;;;12.70;;
77026;SDS011;65956;52.986;17.490;2023-08-21T01:44:27;17.90;;;11.20;;
77026;SDS011;65956;52.986;17.490;2023-08-21T01:46:53;20.10;;;11.70;;
77026;SDS011;65956;52.986;17.490;2023-08-21T01:49:19;19.40;;;12.30;;
77026;SDS011;65956;52.986;17.490;2023-08-21T01:51:46;20.40;;;12.60;;
77026;SDS011;65956;52.986;17.490;2023-08-21T01:54:12;19.10;;;11.80;;
77026;SDS011;65956;52.986;17.490;2023-08-21T01:56:38;19.90;;;12.80;;
77026;SDS011;65956;52.986;17.490;2023-08-21T01:59:04;19.70;;;11.70;;
77026;SDS011;65956;52.986;17.490;2023-08-21T02:01:32;17.10;;;11.40;;
77026;SDS011;65956;52.986;17.490;2023-08-21T02:03:59;17.00;;;10.90;;
77026;SDS011;65956;52.986;17.490;2023-08-21T02:06:25;15.90;;;10.20;;
77026;SDS011;65956;52.986;17.490;2023-08-21T02:08:51;15.50;;;10.90;;
77026;SDS011;65956;52.986;17.490;2023-08-21T02:11:18;16.20;;;11.10;;
77026;SDS011;65956;52.986;17.490;2023-08-21T02:13:44;18.40;;;11.30;;
77026;SDS011;65956;52.986;17.490;2023-08-21T02:16:10;16.70;;;10.50;;
77026;SDS011;65956;52.986;17.490;2023-08-21T02:18:36;16.80;;;10.20;;
77026;SDS011;65956;52.986;17.490;2023-08-21T02:21:02;19.80;;;12.20;;
77026;SDS011;65956;52.986;17.490;2023-08-21T02:23:28;17.20;;;10.80;;
77026;SDS011;65956;52.986;17.490;2023-08-21T02:25:54;18.60;;;11.00;;
77026;SDS011;65956;52.986;17.490;2023-08-21T02:28:21;18.00;;;11.40;;
77026;SDS011;65956;52.986;17.490;2023-08-21T02:30:47;17.70;;;11.20;;
77026;SDS011;65956;52.986;17.490;2023-08-21T02:33:13;19.70;;;11.70;;
77026;SDS011;65956;52.986;17.490;2023-08-21T02:35:39;17.60;;;11.30;;
77026;SDS011;65956;52.986;17.490;2023-08-21T02:38:05;21.20;;;12.60;;
77026;SDS011;65956;52.986;17.490;2023-08-21T02:40:34;22.60;;;13.10;;
77026;SDS011;65956;52.986;17.490;2023-08-21T02:43:00;20.50;;;12.10;;
77026;SDS011;65956;52.986;17.490;2023-08-21T02:45:26;20.40;;;11.90;;
77026;SDS011;65956;52.986;17.490;2023-08-21T02:47:52;19.70;;;12.10;;
77026;SDS011;65956;52.986;17.490;2023-08-21T02:50:18;17.20;;;10.80;;
77026;SDS011;65956;52.986;17.490;2023-08-21T02:52:44;23.20;;;12.70;;
77026;SDS011;65956;52.986;17.490;2023-08-21T02:55:10;20.10;;;12.20;;
77026;SDS011;65956;52.986;17.490;2023-08-21T02:57:36;21.20;;;11.90;;
77026;SDS011;65956;52.986;17.490;2023-08-21T03:00:02;21.40;;;12.40;;
77026;SDS011;65956;52.986;17.490;2023-08-21T03:02:29;20.00;;;11.80;;
77026;SDS011;65956;52.986;17.490;2023-08-21T03:04:55;21.20;;;12.60;;
77026;SDS011;65956;52.986;17.490;2023-08-21T03:07:21;20.90;;;12.90;;
77026;SDS011;65956;52.986;17.490;2023-08-21T03:09:47;18.40;;;11.50;;
77026;SDS011;65956;52.986;17.490;2023-08-21T03:12:13;21.00;;;12.10;;
77026;SDS011;65956;52.986;17.490;2023-08-21T03:14:39;20.80;;;11.80;;
77026;SDS011;65956;52.986;17.490;2023-08-21T03:17:06;21.90;;;12.50;;
77026;SDS011;65956;52.986;17.490;2023-08-21T03:19:32;20.70;;;11.90;;
77026;SDS011;65956;52.986;17.490;2023-08-21T03:21:58;19.40;;;12.20;;
77026;SDS011;65956;52.986;17.490;2023-08-21T03:24:24;17.80;;;11.40;;
77026;SDS011;65956;52.986;17.490;2023-08-21T03:26:50;18.30;;;11.20;;
77026;SDS011;65956;52.986;17.490;2023-08-21T03:29:16;20.40;;;10.70;;
77026;SDS011;65956;52.986;17.490;2023-08-21T03:31:42;19.00;;;11.10;;
77026;SDS011;65956;52.986;17.490;2023-08-21T03:34:08;19.30;;;11.20;;
77026;SDS011;65956;52.986;17.490;2023-08-21T03:36:34;18.30;;;10.80;;
77026;SDS011;65956;52.986;17.490;2023-08-21T03:39:02;20.10;;;11.60;;
77026;SDS011;65956;52.986;17.490;2023-08-21T03:41:34;17.60;;;11.20;;
77026;SDS011;65956;52.986;17.490;2023-08-21T03:44:00;18.40;;;11.00;;
77026;SDS011;65956;52.986;17.490;2023-08-21T03:46:26;19.50;;;11.10;;
77026;SDS011;65956;52.986;17.490;2023-08-21T03:48:54;19.50;;;12.10;;
77026;SDS011;65956;52.986;17.490;2023-08-21T03:51:20;17.70;;;10.40;;
77026;SDS011;65956;52.986;17.490;2023-08-21T03:53:46;18.80;;;11.40;;
77026;SDS011;65956;52.986;17.490;2023-08-21T03:56:12;22.50;;;12.30;;
77026;SDS011;65956;52.986;17.490;2023-08-21T03:58:38;20.30;;;12.10;;
77026;SDS011;65956;52.986;17.490;2023-08-21T04:01:04;19.00;;;11.00;;
77026;SDS011;65956;52.986;17.490;2023-08-21T04:03:30;20.60;;;11.80;;
77026;SDS011;65956;52.986;17.490;2023-08-21T04:05:56;24.80;;;13.00;;
77026;SDS011;65956;52.986;17.490;2023-08-21T04:08:22;20.10;;;11.20;;
77026;SDS011;65956;52.986;17.490;2023-08-21T04:10:48;17.90;;;10.80;;
77026;SDS011;65956;52.986;17.490;2023-08-21T04:13:14;16.70;;;11.20;;
77026;SDS011;65956;52.986;17.490;2023-08-21T04:15:44;16.70;;;10.60;;
77026;SDS011;65956;52.986;17.490;2023-08-21T04:18:14;19.70;;;10.50;;
77026;SDS011;65956;52.986;17.490;2023-08-21T04:20:40;19.40;;;11.80;;
77026;SDS011;65956;52.986;17.490;2023-08-21T04:23:07;17.50;;;11.00;;
77026;SDS011;65956;52.986;17.490;2023-08-21T04:25:33;17.30;;;10.70;;
77026;SDS011;65956;52.986;17.490;2023-08-21T04:27:59;17.10;;;10.30;;
77026;SDS011;65956;52.986;17.490;2023-08-21T04:30:26;16.80;;;10.20;;
77026;SDS011;65956;52.986;17.490;2023-08-21T04:32:52;16.50;;;9.60;;
77026;SDS011;65956;52.986;17.490;2023-08-21T04:35:19;18.20;;;10.60;;
77026;SDS011;65956;52.986;17.490;2023-08-21T04:37:46;15.80;;;9.30;;
77026;SDS011;65956;52.986;17.490;2023-08-21T04:40:14;16.60;;;9.50;;
77026;SDS011;65956;52.986;17.490;2023-08-21T04:42:41;14.00;;;7.90;;
77026;SDS011;65956;52.986;17.490;2023-08-21T04:45:07;15.60;;;10.20;;
77026;SDS011;65956;52.986;17.490;2023-08-21T04:47:35;15.10;;;8.10;;
77026;SDS011;65956;52.986;17.490;2023-08-21T04:50:02;13.50;;;8.30;;
77026;SDS011;65956;52.986;17.490;2023-08-21T04:52:28;14.10;;;8.30;;
77026;SDS011;65956;52.986;17.490;2023-08-21T04:54:54;15.60;;;8.20;;
77026;SDS011;65956;52.986;17.490;2023-08-21T04:57:21;12.60;;;7.40;;
77026;SDS011;65956;52.986;17.490;2023-08-21T04:59:47;13.20;;;8.60;;
77026;SDS011;65956;52.986;17.490;2023-08-21T05:02:14;14.20;;;7.80;;
77026;SDS011;65956;52.986;17.490;2023-08-21T05:04:40;13.30;;;8.00;;
77026;SDS011;65956;52.986;17.490;2023-08-21T05:07:06;14.30;;;8.40;;
77026;SDS011;65956;52.986;17.490;2023-08-21T05:09:32;11.80;;;7.40;;
77026;SDS011;65956;52.986;17.490;2023-08-21T05:11:58;13.10;;;8.10;;
77026;SDS011;65956;52.986;17.490;2023-08-21T05:14:24;15.60;;;8.00;;
77026;SDS011;65956;52.986;17.490;2023-08-21T05:16:51;13.00;;;7.60;;
77026;SDS011;65956;52.986;17.490;2023-08-21T05:19:17;12.50;;;7.50;;
77026;SDS011;65956;52.986;17.490;2023-08-21T05:21:43;11.10;;;6.30;;
77026;SDS011;65956;52.986;17.490;2023-08-21T05:24:11;11.60;;;7.30;;
77026;SDS011;65956;52.986;17.490;2023-08-21T05:26:39;11.60;;;7.30;;
77026;SDS011;65956;52.986;17.490;2023-08-21T05:29:05;14.00;;;7.00;;
77026;SDS011;65956;52.986;17.490;2023-08-21T05:31:31;10.70;;;6.70;;
77026;SDS011;65956;52.986;17.490;2023-08-21T05:33:58;12.00;;;7.00;;
77026;SDS011;65956;52.986;17.490;2023-08-21T05:36:24;10.50;;;6.60;;
77026;SDS011;65956;52.986;17.490;2023-08-21T05:38:50;10.40;;;6.70;;
77026;SDS011;65956;52.986;17.490;2023-08-21T05:41:18;10.50;;;5.80;;
77026;SDS011;65956;52.986;17.490;2023-08-21T05:43:45;11.00;;;6.20;;
77026;SDS011;65956;52.986;17.490;2023-08-21T05:46:12;9.50;;;5.70;;
77026;SDS011;65956;52.986;17.490;2023-08-21T05:48:38;10.40;;;5.20;;
77026;SDS011;65956;52.986;17.490;2023-08-21T05:51:04;10.60;;;5.80;;
77026;SDS011;65956;52.986;17.490;2023-08-21T05:53:31;9.50;;;5.30;;
77026;SDS011;65956;52.986;17.490;2023-08-21T05:55:57;8.90;;;5.30;;
77026;SDS011;65956;52.986;17.490;2023-08-21T05:58:23;7.40;;;4.90;;
77026;SDS011;65956;52.986;17.490;2023-08-21T06:00:49;9.10;;;4.90;;
77026;SDS011;65956;52.986;17.490;2023-08-21T06:03:15;9.20;;;5.10;;
77026;SDS011;65956;52.986;17.490;2023-08-21T06:06:00;9.60;;;4.80;;
77026;SDS011;65956;52.986;17.490;2023-08-21T06:08:27;8.80;;;4.90;;
77026;SDS011;65956;52.986;17.490;2023-08-21T06:10:53;7.90;;;4.10;;
77026;SDS011;65956;52.986;17.490;2023-08-21T06:13:19;7.90;;;4.30;;
77026;SDS011;65956;52.986;17.490;2023-08-21T06:15:46;9.60;;;4.40;;
77026;SDS011;65956;52.986;17.490;2023-08-21T06:18:13;8.50;;;4.60;;
77026;SDS011;65956;52.986;17.490;2023-08-21T06:20:43;9.30;;;4.50;;
77026;SDS011;65956;52.986;17.490;2023-08-21T06:23:10;8.40;;;4.20;;
77026;SDS011;65956;52.986;17.490;2023-08-21T06:25:37;7.00;;;4.00;;
77026;SDS011;65956;52.986;17.490;2023-08-21T06:28:03;10.00;;;4.30;;
77026;SDS011;65956;52.986;17.490;2023-08-21T06:30:31;7.40;;;3.60;;
77026;SDS011;65956;52.986;17.490;2023-08-21T06:32:57;7.20;;;3.80;;
77026;SDS011;65956;52.986;17.490;2023-08-21T06:35:24;8.80;;;4.00;;
77026;SDS011;65956;52.986;17.490;2023-08-21T06:37:50;7.10;;;4.10;;
77026;SDS011;65956;52.986;17.490;2023-08-21T06:40:17;7.30;;;3.50;;
77026;SDS011;65956;52.986;17.490;2023-08-21T06:42:43;6.30;;;3.10;;
77026;SDS011;65956;52.986;17.490;2023-08-21T06:45:09;6.90;;;3.20;;
77026;SDS011;65956;52.986;17.490;2023-08-21T06:47:35;6.70;;;3.00;;
77026;SDS011;65956;52.986;17.490;2023-08-21T06:50:01;9.10;;;3.60;;
77026;SDS011;65956;52.986;17.490;2023-08-21T06:52:27;8.00;;;3.40;;
77026;SDS011;65956;52.986;17.490;2023-08-21T06:54:53;5.90;;;2.70;;
77026;SDS011;65956;52.986;17.490;2023-08-21T06:57:19;8.10;;;3.60;;
77026;SDS011;65956;52.986;17.490;2023-08-21T06:59:45;7.40;;;3.00;;
77026;SDS011;65956;52.986;17.490;2023-08-21T07:02:11;8.90;;;3.20;;
77026;SDS011;65956;52.986;17.490;2023-08-21T07:04:37;4.90;;;2.50;;
77026;SDS011;65956;52.986;17.490;2023-08-21T07:07:03;6.00;;;2.60;;
77026;SDS011;65956;52.986;17.490;2023-08-21T07:09:29;5.90;;;2.90;;
77026;SDS011;65956;52.986;17.490;2023-08-21T07:11:55;7.30;;;3.20;;
77026;SDS011;65956;52.986;17.490;2023-08-21T07:14:22;7.30;;;3.40;;
77026;SDS011;65956;52.986;17.490;2023-08-21T07:16:48;5.60;;;2.80;;
77026;SDS011;65956;52.986;17.490;2023-08-21T07:19:14;6.10;;;2.90;;
77026;SDS011;65956;52.986;17.490;2023-08-21T07:21:40;7.10;;;2.60;;
77026;SDS011;65956;52.986;17.490;2023-08-21T07:24:06;7.40;;;3.00;;
77026;SDS011;65956;52.986;17.490;2023-08-21T07:26:32;6.60;;;2.60;;
77026;SDS011;65956;52.986;17.490;2023-08-21T07:28:58;6.90;;;2.30;;
77026;SDS011;65956;52.986;17.490;2023-08-21T07:31:25;8.50;;;3.90;;
77026;SDS011;65956;52.986;17.490;2023-08-21T07:33:51;8.20;;;3.30;;
77026;SDS011;65956;52.986;17.490;2023-08-21T07:36:17;6.40;;;2.40;;
77026;SDS011;65956;52.986;17.490;2023-08-21T07:38:45;6.30;;;2.50;;
77026;SDS011;65956;52.986;17.490;2023-08-21T07:41:12;7.80;;;2.40;;
77026;SDS011;65956;52.986;17.490;2023-08-21T07:43:42;5.20;;;1.80;;
77026;SDS011;65956;52.986;17.490;2023-08-21T07:48:42;5.50;;;2.50;;
77026;SDS011;65956;52.986;17.490;2023-08-21T07:51:08;7.60;;;2.60;;
77026;SDS011;65956;52.986;17.490;2023-08-21T07:53:34;5.70;;;2.30;;
77026;SDS011;65956;52.986;17.490;2023-08-21T07:56:01;4.50;;;2.30;;
77026;SDS011;65956;52.986;17.490;2023-08-21T07:58:29;6.60;;;2.20;;
77026;SDS011;65956;52.986;17.490;2023-08-21T08:00:56;6.60;;;2.30;;
77026;SDS011;65956;52.986;17.490;2023-08-21T08:03:22;5.70;;;2.30;;
77026;SDS011;65956;52.986;17.490;2023-08-21T08:05:48;5.60;;;2.30;;
77026;SDS011;65956;52.986;17.490;2023-08-21T08:08:16;6.70;;;2.20;;
77026;SDS011;65956;52.986;17.490;2023-08-21T08:10:43;5.00;;;2.00;;
77026;SDS011;65956;52.986;17.490;2023-08-21T08:13:09;6.10;;;2.40;;
77026;SDS011;65956;52.986;17.490;2023-08-21T08:15:35;6.60;;;2.30;;
77026;SDS011;65956;52.986;17.490;2023-08-21T08:18:02;6.40;;;2.40;;
77026;SDS011;65956;52.986;17.490;2023-08-21T08:20:29;5.90;;;2.20;;
77026;SDS011;65956;52.986;17.490;2023-08-21T08:22:55;4.50;;;2.00;;
77026;SDS011;65956;52.986;17.490;2023-08-21T08:25:22;4.70;;;2.00;;
77026;SDS011;65956;52.986;17.490;2023-08-21T08:27:48;6.70;;;2.20;;
77026;SDS011;65956;52.986;17.490;2023-08-21T08:30:14;7.00;;;2.40;;
77026;SDS011;65956;52.986;17.490;2023-08-21T08:32:44;5.50;;;2.20;;
77026;SDS011;65956;52.986;17.490;2023-08-21T08:35:14;6.10;;;2.10;;
77026;SDS011;65956;52.986;17.490;2023-08-21T08:37:41;4.80;;;2.70;;
77026;SDS011;65956;52.986;17.490;2023-08-21T08:40:09;4.60;;;1.80;;
77026;SDS011;65956;52.986;17.490;2023-08-21T08:42:36;5.20;;;2.00;;
77026;SDS011;65956;52.986;17.490;2023-08-21T08:45:04;4.70;;;1.80;;
77026;SDS011;65956;52.986;17.490;2023-08-21T08:47:34;4.30;;;1.60;;
77026;SDS011;65956;52.986;17.490;2023-08-21T08:50:04;5.30;;;1.70;;
77026;SDS011;65956;52.986;17.490;2023-08-21T08:52:39;5.00;;;1.70;;
77026;SDS011;65956;52.986;17.490;2023-08-21T08:55:05;4.00;;;1.80;;
77026;SDS011;65956;52.986;17.490;2023-08-21T08:57:34;5.10;;;1.90;;
77026;SDS011;65956;52.986;17.490;2023-08-21T09:00:01;4.80;;;1.70;;
77026;SDS011;65956;52.986;17.490;2023-08-21T09:02:29;5.70;;;2.10;;
77026;SDS011;65956;52.986;17.490;2023-08-21T09:04:54;4.80;;;1.90;;
77026;SDS011;65956;52.986;17.490;2023-08-21T09:07:20;6.00;;;1.90;;
77026;SDS011;65956;52.986;17.490;2023-08-21T09:09:47;4.30;;;1.60;;
77026;SDS011;65956;52.986;17.490;2023-08-21T09:12:18;5.10;;;1.50;;
77026;SDS011;65956;52.986;17.490;2023-08-21T09:14:45;5.40;;;1.70;;
77026;SDS011;65956;52.986;17.490;2023-08-21T09:17:12;6.00;;;1.70;;
77026;SDS011;65956;52.986;17.490;2023-08-21T09:19:39;3.40;;;1.30;;
77026;SDS011;65956;52.986;17.490;2023-08-21T09:22:14;5.00;;;1.70;;
77026;SDS011;65956;52.986;17.490;2023-08-21T09:27:35;4.50;;;1.50;;
77026;SDS011;65956;52.986;17.490;2023-08-21T09:30:03;4.70;;;1.60;;
77026;SDS011;65956;52.986;17.490;2023-08-21T09:32:30;3.50;;;1.40;;
77026;SDS011;65956;52.986;17.490;2023-08-21T09:34:56;3.70;;;1.40;;
77026;SDS011;65956;52.986;17.490;2023-08-21T09:37:27;4.70;;;1.50;;
77026;SDS011;65956;52.986;17.490;2023-08-21T09:39:58;3.00;;;1.40;;
77026;SDS011;65956;52.986;17.490;2023-08-21T09:42:30;4.30;;;1.40;;
77026;SDS011;65956;52.986;17.490;2023-08-21T09:44:56;4.20;;;1.50;;
77026;SDS011;65956;52.986;17.490;2023-08-21T09:47:22;4.40;;;1.30;;
77026;SDS011;65956;52.986;17.490;2023-08-21T09:49:51;3.20;;;1.30;;
77026;SDS011;65956;52.986;17.490;2023-08-21T09:52:18;4.00;;;1.40;;
77026;SDS011;65956;52.986;17.490;2023-08-21T09:54:45;3.40;;;1.20;;
77026;SDS011;65956;52.986;17.490;2023-08-21T09:57:11;4.00;;;1.30;;
77026;SDS011;65956;52.986;17.490;2023-08-21T09:59:38;3.30;;;1.20;;
77026;SDS011;65956;52.986;17.490;2023-08-21T10:02:07;4.50;;;1.40;;
77026;SDS011;65956;52.986;17.490;2023-08-21T10:04:34;4.50;;;1.30;;
77026;SDS011;65956;52.986;17.490;2023-08-21T10:07:03;4.40;;;1.60;;
77026;SDS011;65956;52.986;17.490;2023-08-21T10:09:33;3.90;;;1.70;;
77026;SDS011;65956;52.986;17.490;2023-08-21T10:12:00;5.00;;;1.70;;
77026;SDS011;65956;52.986;17.490;2023-08-21T10:14:27;3.60;;;1.20;;
77026;SDS011;65956;52.986;17.490;2023-08-21T10:16:53;4.50;;;1.30;;
77026;SDS011;65956;52.986;17.490;2023-08-21T10:19:20;4.60;;;1.60;;
77026;SDS011;65956;52.986;17.490;2023-08-21T10:21:47;4.40;;;1.60;;
77026;SDS011;65956;52.986;17.490;2023-08-21T10:24:27;3.60;;;1.40;;
77026;SDS011;65956;52.986;17.490;2023-08-21T10:26:59;4.10;;;1.40;;
77026;SDS011;65956;52.986;17.490;2023-08-21T10:29:25;3.50;;;1.50;;
77026;SDS011;65956;52.986;17.490;2023-08-21T10:31:58;4.10;;;1.60;;
77026;SDS011;65956;52.986;17.490;2023-08-21T10:34:31;4.90;;;1.50;;
77026;SDS011;65956;52.986;17.490;2023-08-21T10:37:10;4.80;;;1.50;;
77026;SDS011;65956;52.986;17.490;2023-08-21T10:39:53;4.60;;;1.40;;
77026;SDS011;65956;52.986;17.490;2023-08-21T10:45:11;4.60;;;1.40;;
77026;SDS011;65956;52.986;17.490;2023-08-21T10:47:38;4.40;;;1.60;;
77026;SDS011;65956;52.986;17.490;2023-08-21T10:50:05;5.20;;;1.70;;
77026;SDS011;65956;52.986;17.490;2023-08-21T10:52:37;4.90;;;1.50;;
77026;SDS011;65956;52.986;17.490;2023-08-21T10:55:09;3.90;;;1.20;;
77026;SDS011;65956;52.986;17.490;2023-08-21T10:57:35;4.10;;;1.40;;
77026;SDS011;65956;52.986;17.490;2023-08-21T11:02:37;3.60;;;1.30;;
77026;SDS011;65956;52.986;17.490;2023-08-21T11:05:05;3.70;;;1.40;;
77026;SDS011;65956;52.986;17.490;2023-08-21T11:07:37;4.10;;;1.50;;
77026;SDS011;65956;52.986;17.490;2023-08-21T11:10:08;3.50;;;1.30;;
77026;SDS011;65956;52.986;17.490;2023-08-21T11:12:36;4.10;;;1.30;;
77026;SDS011;65956;52.986;17.490;2023-08-21T11:15:03;4.20;;;1.40;;
77026;SDS011;65956;52.986;17.490;2023-08-21T11:17:29;3.90;;;1.30;;
77026;SDS011;65956;52.986;17.490;2023-08-21T11:19:55;4.00;;;1.20;;
77026;SDS011;65956;52.986;17.490;2023-08-21T11:22:31;4.70;;;1.60;;
77026;SDS011;65956;52.986;17.490;2023-08-21T11:24:57;3.70;;;1.40;;
77026;SDS011;65956;52.986;17.490;2023-08-21T11:27:23;2.80;;;1.20;;
77026;SDS011;65956;52.986;17.490;2023-08-21T11:29:50;3.90;;;1.40;;
77026;SDS011;65956;52.986;17.490;2023-08-21T11:32:17;3.70;;;1.20;;
77026;SDS011;65956;52.986;17.490;2023-08-21T11:34:49;3.70;;;1.30;;
77026;SDS011;65956;52.986;17.490;2023-08-21T11:37:17;4.80;;;1.40;;
77026;SDS011;65956;52.986;17.490;2023-08-21T11:39:48;4.20;;;1.20;;
77026;SDS011;65956;52.986;17.490;2023-08-21T11:42:18;4.40;;;1.40;;
77026;SDS011;65956;52.986;17.490;2023-08-21T11:44:46;4.20;;;1.50;;
77026;SDS011;65956;52.986;17.490;2023-08-21T11:47:17;4.20;;;1.50;;
77026;SDS011;65956;52.986;17.490;2023-08-21T11:49:45;4.20;;;1.40;;
77026;SDS011;65956;52.986;17.490;2023-08-21T11:52:19;5.20;;;1.70;;
77026;SDS011;65956;52.986;17.490;2023-08-21T11:54:49;3.70;;;1.60;;
77026;SDS011;65956;52.986;17.490;2023-08-21T11:57:16;4.20;;;1.40;;
77026;SDS011;65956;52.986;17.490;2023-08-21T11:59:43;4.50;;;1.70;;
77026;SDS011;65956;52.986;17.490;2023-08-21T12:02:16;6.20;;;1.90;;
77026;SDS011;65956;52.986;17.490;2023-08-21T12:04:44;3.20;;;1.20;;
77026;SDS011;65956;52.986;17.490;2023-08-21T12:07:10;5.60;;;1.60;;
77026;SDS011;65956;52.986;17.490;2023-08-21T12:09:37;3.90;;;1.30;;
77026;SDS011;65956;52.986;17.490;2023-08-21T12:12:04;3.30;;;1.30;;
77026;SDS011;65956;52.986;17.490;2023-08-21T12:14:30;5.10;;;1.60;;
77026;SDS011;65956;52.986;17.490;2023-08-21T12:16:56;3.40;;;1.30;;
77026;SDS011;65956;52.986;17.490;2023-08-21T12:19:22;3.90;;;1.60;;
77026;SDS011;65956;52.986;17.490;2023-08-21T12:21:49;4.30;;;1.50;;
77026;SDS011;65956;52.986;17.490;2023-08-21T12:24:16;5.20;;;1.50;;
77026;SDS011;65956;52.986;17.490;2023-08-21T12:26:42;3.90;;;1.40;;
77026;SDS011;65956;52.986;17.490;2023-08-21T12:29:08;5.50;;;1.70;;
77026;SDS011;65956;52.986;17.490;2023-08-21T12:31:37;4.20;;;1.60;;
77026;SDS011;65956;52.986;17.490;2023-08-21T12:34:03;5.10;;;1.80;;
77026;SDS011;65956;52.986;17.490;2023-08-21T12:36:29;4.60;;;1.80;;
77026;SDS011;65956;52.986;17.490;2023-08-21T12:38:55;4.20;;;1.50;;
77026;SDS011;65956;52.986;17.490;2023-08-21T12:41:21;3.50;;;1.60;;
77026;SDS011;65956;52.986;17.490;2023-08-21T12:43:47;4.20;;;1.70;;
77026;SDS011;65956;52.986;17.490;2023-08-21T12:46:13;4.20;;;1.70;;
77026;SDS011;65956;52.986;17.490;2023-08-21T12:48:39;3.90;;;1.80;;
77026;SDS011;65956;52.986;17.490;2023-08-21T12:51:05;4.70;;;2.00;;
77026;SDS011;65956;52.986;17.490;2023-08-21T12:53:31;4.50;;;1.80;;
77026;SDS011;65956;52.986;17.490;2023-08-21T12:55:57;4.50;;;1.70;;
77026;SDS011;65956;52.986;17.490;2023-08-21T12:58:23;7.10;;;2.00;;
77026;SDS011;65956;52.986;17.490;2023-08-21T13:00:50;3.70;;;2.20;;
77026;SDS011;65956;52.986;17.490;2023-08-21T13:03:16;4.20;;;1.80;;
77026;SDS011;65956;52.986;17.490;2023-08-21T13:05:42;4.30;;;1.90;;
77026;SDS011;65956;52.986;17.490;2023-08-21T13:08:08;4.20;;;2.00;;
77026;SDS011;65956;52.986;17.490;2023-08-21T13:10:34;4.70;;;2.10;;
77026;SDS011;65956;52.986;17.490;2023-08-21T13:13:00;4.10;;;2.10;;
77026;SDS011;65956;52.986;17.490;2023-08-21T13:15:26;4.90;;;2.10;;
77026;SDS011;65956;52.986;17.490;2023-08-21T13:17:52;5.90;;;2.60;;
77026;SDS011;65956;52.986;17.490;2023-08-21T13:20:18;4.60;;;2.20;;
77026;SDS011;65956;52.986;17.490;2023-08-21T13:25:11;4.80;;;2.90;;
77026;SDS011;65956;52.986;17.490;2023-08-21T13:27:37;5.10;;;2.50;;
77026;SDS011;65956;52.986;17.490;2023-08-21T13:30:03;4.80;;;2.30;;
77026;SDS011;65956;52.986;17.490;2023-08-21T13:32:31;5.10;;;2.40;;
77026;SDS011;65956;52.986;17.490;2023-08-21T13:34:57;6.50;;;2.50;;
77026;SDS011;65956;52.986;17.490;2023-08-21T13:37:22;5.30;;;2.40;;
77026;SDS011;65956;52.986;17.490;2023-08-21T13:39:49;6.50;;;2.30;;
77026;SDS011;65956;52.986;17.490;2023-08-21T13:42:15;5.40;;;2.60;;
77026;SDS011;65956;52.986;17.490;2023-08-21T13:44:41;7.10;;;2.60;;
77026;SDS011;65956;52.986;17.490;2023-08-21T13:47:07;6.40;;;2.60;;
77026;SDS011;65956;52.986;17.490;2023-08-21T13:49:33;8.90;;;2.50;;
77026;SDS011;65956;52.986;17.490;2023-08-21T13:51:59;6.00;;;2.60;;
77026;SDS011;65956;52.986;17.490;2023-08-21T13:54:24;5.20;;;2.40;;
77026;SDS011;65956;52.986;17.490;2023-08-21T13:56:50;4.90;;;2.20;;
77026;SDS011;65956;52.986;17.490;2023-08-21T13:59:16;5.00;;;2.30;;
77026;SDS011;65956;52.986;17.490;2023-08-21T14:01:42;6.80;;;2.50;;
77026;SDS011;65956;52.986;17.490;2023-08-21T14:04:08;7.00;;;2.20;;
77026;SDS011;65956;52.986;17.490;2023-08-21T14:06:35;5.50;;;2.50;;
77026;SDS011;65956;52.986;17.490;2023-08-21T14:09:01;5.60;;;2.40;;
77026;SDS011;65956;52.986;17.490;2023-08-21T14:11:27;6.60;;;2.60;;
77026;SDS011;65956;52.986;17.490;2023-08-21T14:13:53;5.20;;;2.30;;
77026;SDS011;65956;52.986;17.490;2023-08-21T14:16:19;5.80;;;2.40;;
77026;SDS011;65956;52.986;17.490;2023-08-21T14:18:45;5.40;;;2.30;;
77026;SDS011;65956;52.986;17.490;2023-08-21T14:21:10;6.10;;;2.20;;
77026;SDS011;65956;52.986;17.490;2023-08-21T14:23:36;4.30;;;2.50;;
77026;SDS011;65956;52.986;17.490;2023-08-21T14:26:05;5.70;;;2.30;;
77026;SDS011;65956;52.986;17.490;2023-08-21T14:28:31;5.10;;;2.50;;
77026;SDS011;65956;52.986;17.490;2023-08-21T14:30:57;4.90;;;2.40;;
77026;SDS011;65956;52.986;17.490;2023-08-21T14:33:23;5.70;;;2.60;;
77026;SDS011;65956;52.986;17.490;2023-08-21T14:35:49;5.10;;;2.50;;
77026;SDS011;65956;52.986;17.490;2023-08-21T14:38:15;5.70;;;2.60;;
77026;SDS011;65956;52.986;17.490;2023-08-21T14:40:41;5.10;;;2.70;;